createdAt,value
2017-06-01T00:00:07.778Z,1015.72
2017-06-01T00:10:07.737Z,1015.56
2017-06-01T00:20:07.810Z,1015.58
2017-06-01T00:30:07.762Z,1015.64
2017-06-01T00:40:07.731Z,1015.56
2017-06-01T00:50:07.782Z,1015.5
2017-06-01T01:00:07.751Z,1015.52
2017-06-01T01:10:07.710Z,1015.61
2017-06-01T01:20:07.768Z,1015.62
2017-06-01T01:30:07.734Z,1015.51
2017-06-01T01:40:08.728Z,1015.53
2017-06-01T01:50:07.766Z,1015.59
2017-06-01T02:00:07.727Z,1015.64
2017-06-01T02:10:07.822Z,1015.64
2017-06-01T02:20:07.746Z,1015.61
2017-06-01T02:30:07.705Z,1015.59
2017-06-01T02:40:07.767Z,1015.48
2017-06-01T02:50:07.729Z,1015.49
2017-06-01T03:00:07.790Z,1015.54
2017-06-01T03:10:07.758Z,1015.59
2017-06-01T03:20:07.721Z,1015.63
2017-06-01T03:30:07.771Z,1015.63
2017-06-01T03:40:07.739Z,1015.65
2017-06-01T03:50:07.704Z,1015.65
2017-06-01T04:00:07.755Z,1015.85
2017-06-01T04:10:07.720Z,1015.8
2017-06-01T04:20:07.683Z,1015.85
2017-06-01T04:30:07.747Z,1015.8
2017-06-01T04:40:07.721Z,1015.84
2017-06-01T04:50:07.766Z,1016.01
2017-06-01T05:00:07.740Z,1016.13
2017-06-01T05:10:07.696Z,1016.13
2017-06-01T05:20:07.748Z,1016.21
2017-06-01T05:30:07.714Z,1016.23
2017-06-01T05:40:07.684Z,1016.18
2017-06-01T05:50:07.750Z,1016.26
2017-06-01T06:00:07.709Z,1016.48
2017-06-01T06:10:07.770Z,1016.55
2017-06-01T06:20:07.728Z,1016.55
2017-06-01T06:30:07.689Z,1016.63
2017-06-01T06:40:07.764Z,1016.67
2017-06-01T06:50:07.717Z,1016.69
2017-06-01T07:00:07.679Z,1016.66
2017-06-01T07:10:07.746Z,1016.56
2017-06-01T07:20:07.785Z,1016.51
2017-06-01T07:30:07.763Z,1016.49
2017-06-01T07:40:07.729Z,1016.52
2017-06-01T07:50:07.788Z,1016.47
2017-06-01T08:00:07.746Z,1016.4
2017-06-01T08:10:07.830Z,1016.43
2017-06-01T08:20:07.765Z,1016.44
2017-06-01T08:30:07.748Z,1016.37
2017-06-01T08:40:08.042Z,1016.31
2017-06-01T08:50:08.694Z,1016.29
2017-06-01T09:00:07.858Z,1016.17
2017-06-01T09:10:07.786Z,1016.09
2017-06-01T09:20:07.738Z,1016.1
2017-06-01T09:30:07.803Z,1016.04
2017-06-01T09:40:07.769Z,1015.97
2017-06-01T09:50:07.827Z,1015.92
2017-06-01T10:00:07.784Z,1015.81
2017-06-01T10:10:07.748Z,1015.78
2017-06-01T10:20:07.809Z,1015.75
2017-06-01T10:30:07.768Z,1015.65
2017-06-01T10:40:07.833Z,1015.51
2017-06-01T10:50:07.791Z,1015.41
2017-06-01T11:00:08.398Z,1015.31
2017-06-01T11:10:07.824Z,1015.26
2017-06-01T11:20:07.780Z,1015.17
2017-06-01T11:30:07.843Z,1015.07
2017-06-01T11:40:07.791Z,1015.03
2017-06-01T11:50:07.765Z,1014.95
2017-06-01T12:00:07.826Z,1014.91
2017-06-01T12:10:07.794Z,1014.84
2017-06-01T12:20:07.849Z,1014.77
2017-06-01T12:30:07.816Z,1014.62
2017-06-01T12:40:07.775Z,1014.54
2017-06-01T12:50:07.834Z,1014.44
2017-06-01T13:00:09.848Z,1014.38
2017-06-01T13:10:11.686Z,1014.3
2017-06-01T13:20:08.847Z,1014.36
2017-06-01T13:30:07.766Z,1014.26
2017-06-01T13:40:07.763Z,1014.18
2017-06-01T13:50:07.763Z,1014.13
2017-06-01T14:00:09.807Z,1014.02
2017-06-01T14:20:07.800Z,1013.79
2017-06-01T14:30:07.774Z,1013.74
2017-06-01T14:50:09.820Z,1013.63
2017-06-01T15:00:07.837Z,1013.57
2017-06-01T15:10:08.822Z,1013.44
2017-06-01T15:20:08.888Z,1013.33
2017-06-01T15:30:11.618Z,1013.29
2017-06-01T15:40:07.779Z,1013.09
2017-06-01T15:50:08.867Z,1013.08
2017-06-01T16:00:07.786Z,1012.93
2017-06-01T16:10:08.785Z,1012.93
2017-06-01T16:20:07.786Z,1012.76
2017-06-01T16:30:07.785Z,1012.66
2017-06-01T16:40:08.873Z,1012.58
2017-06-01T16:50:09.862Z,1012.52
2017-06-01T17:00:08.897Z,1012.51
2017-06-01T17:10:07.796Z,1012.45
2017-06-01T17:20:07.812Z,1012.43
2017-06-01T17:30:07.828Z,1012.37
2017-06-01T17:40:07.807Z,1012.35
2017-06-01T17:50:07.797Z,1012.37
2017-06-01T18:00:07.819Z,1012.25
2017-06-01T18:10:07.813Z,1012.37
2017-06-01T18:20:07.801Z,1012.28
2017-06-01T18:30:07.833Z,1012.39
2017-06-01T18:40:07.804Z,1012.36
2017-06-01T18:50:07.808Z,1012.36
2017-06-01T19:00:07.818Z,1012.28
2017-06-01T19:10:07.810Z,1012.36
2017-06-01T19:20:07.806Z,1012.34
2017-06-01T19:30:07.830Z,1012.34
2017-06-01T19:40:07.822Z,1012.27
2017-06-01T19:50:07.820Z,1012.35
2017-06-01T20:00:07.817Z,1012.46
2017-06-01T20:10:07.926Z,1012.53
2017-06-01T20:20:07.876Z,1012.54
2017-06-01T20:30:07.843Z,1012.54
2017-06-01T20:40:07.906Z,1012.56
2017-06-01T20:50:07.873Z,1012.59
2017-06-01T21:00:07.950Z,1012.56
2017-06-01T21:10:07.876Z,1012.6
2017-06-01T21:20:07.862Z,1012.64
2017-06-01T21:30:07.952Z,1012.66
2017-06-01T21:40:07.870Z,1012.64
2017-06-01T21:50:07.851Z,1012.61
2017-06-01T22:00:07.893Z,1012.57
2017-06-01T22:10:07.855Z,1012.52
2017-06-01T22:20:07.910Z,1012.53
2017-06-01T22:30:07.873Z,1012.42
2017-06-01T22:40:07.835Z,1012.43
2017-06-01T22:50:07.903Z,1012.43
2017-06-01T23:00:07.865Z,1012.29
2017-06-01T23:10:07.934Z,1012.26
2017-06-01T23:20:10.324Z,1012.23
2017-06-01T23:30:07.848Z,1012.09
2017-06-01T23:40:07.917Z,1012.03
2017-06-01T23:50:07.882Z,1011.9
